createdAt,value
2023-05-23T00:00:37.072Z,9.20
2023-05-23T00:03:05.045Z,9.20
2023-05-23T00:05:32.863Z,10.00
2023-05-23T00:08:01.617Z,9.60
2023-05-23T00:10:29.690Z,9.70
2023-05-23T00:12:58.359Z,9.30
2023-05-23T00:15:26.078Z,9.70
2023-05-23T00:17:53.771Z,10.10
2023-05-23T00:20:21.452Z,10.20
2023-05-23T00:22:49.620Z,9.40
2023-05-23T00:25:17.297Z,9.30
2023-05-23T00:27:44.940Z,9.40
2023-05-23T00:30:12.670Z,10.40
2023-05-23T00:32:40.486Z,10.50
2023-05-23T00:35:08.693Z,9.90
2023-05-23T00:37:36.347Z,11.10
2023-05-23T00:40:04.326Z,10.00
2023-05-23T00:42:33.283Z,10.80
2023-05-23T00:45:00.891Z,9.50
2023-05-23T00:47:29.679Z,10.50
2023-05-23T00:49:57.541Z,11.10
2023-05-23T00:52:25.751Z,11.50
2023-05-23T00:54:53.485Z,10.20
2023-05-23T00:57:21.099Z,12.00
2023-05-23T00:59:48.728Z,10.20
2023-05-23T01:02:16.417Z,11.40
2023-05-23T01:04:44.643Z,10.60
2023-05-23T01:07:12.764Z,11.10
2023-05-23T01:09:41.106Z,11.00
2023-05-23T01:12:26.051Z,11.50
2023-05-23T01:15:02.895Z,12.20
2023-05-23T01:17:42.402Z,12.20
2023-05-23T01:20:27.178Z,12.60
2023-05-23T01:23:00.664Z,13.20
2023-05-23T01:25:44.051Z,14.20
2023-05-23T01:28:20.348Z,15.20
2023-05-23T01:30:52.754Z,14.90
2023-05-23T01:33:21.036Z,15.00
2023-05-23T01:35:49.783Z,17.30
2023-05-23T01:38:17.511Z,19.20
2023-05-23T01:40:45.691Z,20.00
2023-05-23T01:43:13.875Z,17.70
2023-05-23T01:45:42.408Z,14.80
2023-05-23T01:48:12.560Z,14.70
2023-05-23T01:50:41.159Z,15.20
2023-05-23T01:53:10.402Z,15.30
2023-05-23T01:55:39.497Z,15.40
2023-05-23T01:58:09.232Z,15.20
2023-05-23T02:00:36.836Z,15.00
2023-05-23T02:03:04.609Z,16.00
2023-05-23T02:05:33.354Z,16.70
2023-05-23T02:08:02.541Z,16.60
2023-05-23T02:10:30.242Z,16.40
2023-05-23T02:12:57.860Z,17.00
2023-05-23T02:15:25.572Z,17.80
2023-05-23T02:17:53.396Z,18.40
2023-05-23T02:20:21.706Z,18.40
2023-05-23T02:22:51.025Z,19.20
2023-05-23T02:25:21.188Z,19.60
2023-05-23T02:27:48.763Z,19.00
2023-05-23T02:30:17.080Z,18.80
2023-05-23T02:32:45.099Z,19.20
2023-05-23T02:35:13.707Z,21.10
2023-05-23T02:37:41.472Z,20.40
2023-05-23T02:40:09.632Z,19.00
2023-05-23T02:42:37.432Z,18.10
2023-05-23T02:45:05.518Z,20.40
2023-05-23T02:47:33.258Z,20.30
2023-05-23T02:50:01.147Z,18.80
2023-05-23T02:52:29.368Z,18.90
2023-05-23T02:54:57.016Z,19.40
2023-05-23T02:57:24.905Z,18.40
2023-05-23T02:59:53.993Z,18.50
2023-05-23T03:02:21.957Z,18.90
2023-05-23T03:04:51.215Z,20.00
2023-05-23T03:07:27.712Z,19.10
2023-05-23T03:10:11.812Z,21.10
2023-05-23T03:12:39.488Z,19.90
2023-05-23T03:15:08.819Z,21.00
2023-05-23T03:17:37.332Z,22.30
2023-05-23T03:20:06.195Z,21.50
2023-05-23T03:22:33.819Z,22.50
2023-05-23T03:25:04.651Z,21.90
2023-05-23T03:27:34.139Z,21.60
2023-05-23T03:30:02.974Z,21.20
2023-05-23T03:32:30.964Z,21.60
2023-05-23T03:34:58.748Z,22.00
2023-05-23T03:37:27.055Z,21.70
2023-05-23T03:39:54.927Z,23.40
2023-05-23T03:42:26.783Z,21.80
2023-05-23T03:44:55.054Z,21.50
2023-05-23T03:47:26.700Z,21.90
2023-05-23T03:49:55.119Z,22.90
2023-05-23T03:52:23.485Z,21.10
2023-05-23T03:54:51.558Z,22.30
2023-05-23T03:57:19.271Z,22.40
2023-05-23T03:59:48.729Z,23.10
2023-05-23T04:02:17.190Z,21.10
2023-05-23T04:04:49.597Z,20.00
2023-05-23T04:07:17.355Z,19.40
2023-05-23T04:09:45.498Z,19.80
2023-05-23T04:12:14.635Z,18.00
2023-05-23T04:14:43.518Z,15.40
2023-05-23T04:17:12.227Z,14.10
2023-05-23T04:19:40.211Z,12.40
2023-05-23T04:22:08.211Z,11.30
2023-05-23T04:24:38.112Z,13.30
2023-05-23T04:27:06.244Z,12.20
2023-05-23T04:29:36.293Z,11.10
2023-05-23T04:32:03.937Z,10.30
2023-05-23T04:34:34.126Z,7.90
2023-05-23T04:37:02.818Z,7.90
2023-05-23T04:39:31.500Z,9.20
2023-05-23T04:42:18.857Z,7.60
2023-05-23T04:45:16.096Z,7.50
2023-05-23T04:48:17.519Z,5.90
2023-05-23T04:50:48.018Z,5.60
2023-05-23T04:53:15.784Z,5.70
2023-05-23T04:55:44.089Z,4.80
2023-05-23T04:58:15.621Z,4.60
2023-05-23T05:00:43.699Z,3.80
2023-05-23T05:03:12.346Z,3.60
2023-05-23T05:05:46.764Z,3.30
2023-05-23T05:08:15.310Z,3.70
2023-05-23T05:10:43.064Z,3.20
2023-05-23T05:13:12.359Z,3.30
2023-05-23T05:15:48.254Z,3.30
2023-05-23T05:18:17.043Z,3.00
2023-05-23T05:20:46.456Z,2.80
2023-05-23T05:23:16.342Z,3.30
2023-05-23T05:25:44.037Z,3.20
2023-05-23T05:28:12.353Z,3.40
2023-05-23T05:30:46.863Z,3.90
2023-05-23T05:33:15.316Z,3.00
2023-05-23T05:35:43.551Z,2.60
2023-05-23T05:38:11.379Z,3.00
2023-05-23T05:40:40.621Z,3.20
2023-05-23T05:43:10.298Z,2.90
2023-05-23T05:45:38.178Z,2.70
2023-05-23T05:48:06.500Z,2.90
2023-05-23T05:50:40.822Z,3.30
2023-05-23T05:53:08.941Z,2.60
2023-05-23T05:55:36.612Z,2.30
2023-05-23T05:58:04.660Z,2.10
2023-05-23T06:00:43.901Z,2.50
2023-05-23T06:03:12.949Z,2.60
2023-05-23T06:05:48.967Z,2.80
2023-05-23T06:08:16.612Z,3.10
2023-05-23T06:10:44.302Z,2.10
2023-05-23T06:13:12.048Z,2.80
2023-05-23T06:15:41.243Z,2.50
2023-05-23T06:18:08.987Z,3.10
2023-05-23T06:20:37.042Z,2.90
2023-05-23T06:23:09.057Z,2.80
2023-05-23T06:25:36.763Z,3.00
2023-05-23T06:28:04.398Z,3.20
2023-05-23T06:30:32.401Z,3.60
2023-05-23T06:33:00.144Z,3.60
2023-05-23T06:35:27.786Z,3.00
2023-05-23T06:37:55.386Z,3.20
2023-05-23T06:40:23.070Z,2.90
2023-05-23T06:42:51.053Z,3.40
2023-05-23T06:45:38.598Z,2.90
2023-05-23T06:48:06.514Z,3.00
2023-05-23T06:50:36.008Z,2.40
2023-05-23T06:53:03.816Z,3.50
2023-05-23T06:55:34.008Z,3.70
2023-05-23T06:58:04.227Z,3.00
2023-05-23T07:00:32.190Z,2.90
2023-05-23T07:03:14.357Z,3.40
2023-05-23T07:05:42.132Z,2.60
2023-05-23T07:08:13.478Z,2.80
2023-05-23T07:10:44.224Z,3.10
2023-05-23T07:13:28.681Z,3.00
2023-05-23T07:15:57.058Z,2.40
2023-05-23T07:18:25.038Z,2.70
2023-05-23T07:20:52.737Z,3.10
2023-05-23T07:23:23.912Z,2.60
2023-05-23T07:26:01.994Z,2.40
2023-05-23T07:28:47.929Z,2.70
2023-05-23T07:31:15.556Z,2.50
2023-05-23T07:33:43.422Z,3.10
2023-05-23T07:36:12.250Z,2.70
2023-05-23T07:38:39.960Z,3.50
2023-05-23T07:41:12.121Z,2.50
2023-05-23T07:43:41.006Z,2.80
2023-05-23T07:46:09.103Z,2.30
2023-05-23T07:48:37.130Z,2.30
2023-05-23T07:51:05.031Z,2.90
2023-05-23T07:53:32.688Z,2.40
2023-05-23T07:56:01.259Z,2.50
2023-05-23T07:58:31.995Z,2.90
2023-05-23T08:00:59.764Z,3.10
2023-05-23T08:03:46.344Z,2.80
2023-05-23T08:06:19.792Z,2.60
2023-05-23T08:08:47.606Z,2.50
2023-05-23T08:11:15.782Z,2.40
2023-05-23T08:13:46.770Z,2.30
2023-05-23T08:16:43.871Z,2.50
2023-05-23T08:19:15.972Z,2.30
2023-05-23T08:21:44.848Z,2.60
2023-05-23T08:24:14.909Z,3.10
2023-05-23T08:26:43.862Z,3.20
2023-05-23T08:29:13.018Z,3.20
2023-05-23T08:31:41.705Z,3.50
2023-05-23T08:34:09.623Z,3.30
2023-05-23T08:36:40.194Z,3.90
2023-05-23T08:39:11.777Z,3.60
2023-05-23T08:41:50.064Z,3.40
2023-05-23T08:44:17.925Z,3.10
2023-05-23T08:46:52.704Z,3.20
2023-05-23T12:46:25.692Z,4.20
2023-05-23T12:48:54.533Z,4.40
2023-05-23T12:51:22.241Z,4.50
2023-05-23T12:53:49.937Z,4.50
2023-05-23T12:56:18.016Z,4.70
2023-05-23T12:58:45.747Z,5.50
2023-05-23T13:01:13.406Z,5.60
2023-05-23T13:06:31.637Z,5.40
2023-05-23T13:08:59.330Z,5.80
2023-05-23T13:11:27.298Z,7.00
2023-05-23T13:13:55.077Z,7.50
2023-05-23T13:16:22.946Z,8.60
2023-05-23T13:18:50.923Z,6.00
2023-05-23T13:21:18.668Z,9.20
2023-05-23T13:23:46.355Z,8.80
2023-05-23T13:26:14.788Z,13.80
2023-05-23T13:28:42.464Z,16.50
2023-05-23T13:31:10.313Z,9.70
2023-05-23T13:33:38.456Z,10.60
2023-05-23T13:36:06.372Z,10.80
2023-05-23T13:38:34.029Z,7.60
2023-05-23T13:41:01.863Z,6.90
2023-05-23T13:43:29.544Z,7.00
2023-05-23T13:45:57.276Z,7.10
2023-05-23T13:48:24.975Z,10.10
2023-05-23T13:50:52.759Z,18.60
2023-05-23T13:53:21.848Z,18.90
2023-05-23T13:55:50.030Z,12.40
2023-05-23T13:58:17.821Z,17.40
2023-05-23T14:00:45.547Z,18.20
2023-05-23T14:03:13.318Z,18.40
2023-05-23T14:05:41.499Z,22.20
2023-05-23T14:08:09.286Z,18.00
2023-05-23T14:10:36.917Z,23.00
2023-05-23T14:13:06.501Z,37.10
2023-05-23T14:15:35.010Z,38.00
2023-05-23T14:18:29.117Z,37.10
2023-05-23T14:20:56.699Z,34.60
2023-05-23T14:23:24.313Z,29.90
2023-05-23T14:25:52.267Z,16.70
2023-05-23T14:28:20.075Z,14.60
2023-05-23T14:30:47.659Z,8.30
2023-05-23T14:33:15.768Z,5.80
2023-05-23T14:35:43.733Z,5.70
2023-05-23T14:38:11.696Z,5.50
2023-05-23T14:40:39.323Z,6.00
2023-05-23T14:43:07.207Z,6.30
2023-05-23T14:45:34.942Z,5.90
2023-05-23T14:48:02.757Z,5.60
2023-05-23T14:50:30.479Z,4.80
2023-05-23T14:52:59.927Z,5.00
2023-05-23T14:55:27.682Z,5.30
2023-05-23T14:57:55.338Z,4.80
2023-05-23T15:00:23.121Z,4.00
2023-05-23T15:03:25.717Z,3.80
2023-05-23T15:05:55.822Z,3.20
2023-05-23T15:08:23.637Z,3.40
2023-05-23T15:10:51.391Z,5.60
2023-05-23T15:13:19.191Z,6.70
2023-05-23T15:15:47.918Z,6.50
2023-05-23T15:18:27.850Z,6.30
2023-05-23T15:20:59.720Z,5.90
2023-05-23T15:23:27.329Z,4.40
2023-05-23T15:25:55.139Z,4.80
2023-05-23T15:28:23.084Z,5.30
2023-05-23T15:30:51.239Z,4.90
2023-05-23T15:33:19.012Z,5.50
2023-05-23T15:35:46.688Z,4.70
2023-05-23T15:38:15.514Z,5.40
2023-05-23T15:40:44.416Z,5.50
2023-05-23T15:43:12.272Z,5.70
2023-05-23T15:45:39.855Z,7.40
2023-05-23T15:48:07.583Z,6.80
2023-05-23T15:50:35.325Z,9.10
2023-05-23T15:53:03.011Z,8.90
2023-05-23T15:55:31.264Z,8.80
2023-05-23T15:57:58.847Z,7.00
2023-05-23T16:00:26.509Z,5.70
2023-05-23T16:02:54.300Z,6.90
2023-05-23T16:05:22.032Z,5.80
2023-05-23T16:07:50.372Z,5.30
2023-05-23T16:10:18.117Z,6.10
2023-05-23T16:12:46.597Z,6.80
2023-05-23T16:15:14.222Z,7.20
2023-05-23T16:17:41.837Z,8.40
2023-05-23T16:20:10.110Z,7.90
2023-05-23T16:22:37.765Z,6.70
2023-05-23T16:25:06.992Z,7.10
2023-05-23T16:27:35.095Z,6.80
2023-05-23T16:30:02.974Z,6.90
2023-05-23T16:32:30.707Z,6.60
2023-05-23T16:34:58.336Z,7.40
2023-05-23T16:37:25.946Z,7.40
2023-05-23T16:39:53.505Z,6.50
2023-05-23T16:42:21.280Z,7.50
2023-05-23T16:44:49.007Z,8.40
2023-05-23T16:47:17.233Z,7.90
2023-05-23T16:49:45.046Z,8.10
2023-05-23T16:52:12.817Z,6.90
2023-05-23T16:54:40.399Z,7.30
2023-05-23T16:57:08.015Z,7.70
2023-05-23T16:59:35.640Z,7.20
2023-05-23T17:02:03.553Z,8.10
2023-05-23T17:04:31.110Z,11.70
2023-05-23T17:06:59.090Z,11.60
2023-05-23T17:09:26.718Z,12.10
2023-05-23T17:11:54.362Z,9.00
2023-05-23T17:14:22.391Z,9.20
2023-05-23T17:16:50.856Z,8.70
2023-05-23T17:19:18.619Z,8.60
2023-05-23T17:21:46.283Z,8.00
2023-05-23T17:24:13.870Z,8.30
2023-05-23T17:26:46.706Z,9.20
2023-05-23T17:29:23.704Z,10.60
2023-05-23T17:31:55.634Z,10.00
2023-05-23T17:34:33.232Z,11.40
2023-05-23T17:37:01.110Z,11.60
2023-05-23T17:39:28.682Z,11.30
2023-05-23T17:41:56.420Z,11.00
2023-05-23T17:44:24.034Z,10.00
2023-05-23T17:47:02.452Z,11.70
2023-05-23T17:49:30.116Z,11.00
2023-05-23T17:51:58.037Z,11.30
2023-05-23T17:54:25.684Z,11.40
2023-05-23T17:56:54.104Z,11.80
2023-05-23T17:59:22.109Z,11.10
2023-05-23T18:01:49.732Z,11.60
2023-05-23T18:04:17.529Z,11.00
2023-05-23T18:06:45.292Z,11.50
2023-05-23T18:09:12.900Z,11.00
2023-05-23T18:11:40.926Z,10.90
2023-05-23T18:14:08.896Z,10.00
2023-05-23T18:16:36.890Z,10.00
2023-05-23T18:19:05.605Z,10.20
2023-05-23T18:21:34.928Z,9.70
2023-05-23T18:24:04.219Z,8.90
2023-05-23T18:26:32.142Z,9.30
2023-05-23T18:29:01.468Z,9.20
2023-05-23T18:31:29.085Z,9.50
2023-05-23T18:33:56.844Z,10.50
2023-05-23T18:36:24.449Z,9.30
2023-05-23T18:38:52.259Z,9.60
2023-05-23T18:41:19.881Z,10.20
2023-05-23T18:43:48.826Z,10.30
2023-05-23T18:46:16.707Z,10.30
2023-05-23T18:48:44.364Z,10.70
2023-05-23T18:51:12.689Z,12.00
2023-05-23T18:53:42.444Z,10.70
2023-05-23T18:56:10.887Z,12.80
2023-05-23T18:58:38.635Z,12.20
2023-05-23T19:01:07.252Z,11.50
2023-05-23T19:03:37.391Z,13.00
2023-05-23T19:06:06.110Z,11.30
2023-05-23T19:08:34.134Z,11.80
2023-05-23T19:11:01.910Z,12.00
2023-05-23T19:13:29.541Z,11.10
2023-05-23T19:15:57.165Z,12.00
2023-05-23T19:18:24.845Z,11.60
2023-05-23T19:20:52.540Z,11.30
2023-05-23T19:23:20.835Z,11.50
2023-05-23T19:25:48.551Z,12.00
2023-05-23T19:28:16.350Z,13.00
2023-05-23T19:30:44.780Z,11.20
2023-05-23T19:33:12.602Z,11.60
2023-05-23T19:35:40.268Z,12.40
2023-05-23T19:38:08.431Z,12.50
2023-05-23T19:40:36.159Z,12.20
2023-05-23T19:43:03.837Z,11.20
2023-05-23T19:45:31.913Z,12.60
2023-05-23T19:47:59.546Z,13.80
2023-05-23T19:50:27.344Z,14.50
2023-05-23T19:52:54.981Z,14.50
2023-05-23T19:55:22.713Z,13.80
2023-05-23T19:57:51.569Z,13.00
2023-05-23T20:00:19.394Z,12.40
2023-05-23T20:02:47.940Z,12.00
2023-05-23T20:05:15.602Z,12.50
2023-05-23T20:07:43.215Z,10.90
2023-05-23T20:10:11.532Z,11.90
2023-05-23T20:12:39.489Z,12.50
2023-05-23T20:15:07.804Z,12.60
2023-05-23T20:17:36.057Z,13.30
2023-05-23T20:20:05.008Z,14.20
2023-05-23T20:22:32.695Z,12.90
2023-05-23T20:25:00.283Z,12.80
2023-05-23T20:27:27.900Z,12.70
2023-05-23T20:29:55.564Z,13.50
2023-05-23T20:32:23.249Z,12.00
2023-05-23T20:34:51.174Z,11.30
2023-05-23T20:37:19.210Z,11.90
2023-05-23T20:39:48.520Z,12.60
2023-05-23T20:42:16.616Z,11.30
2023-05-23T20:44:45.043Z,11.50
2023-05-23T20:47:13.594Z,12.40
2023-05-23T20:49:42.513Z,12.20
2023-05-23T20:52:10.669Z,11.10
2023-05-23T20:54:38.376Z,10.80
2023-05-23T20:57:06.152Z,10.80
2023-05-23T20:59:33.727Z,11.20
2023-05-23T21:02:01.481Z,11.80
2023-05-23T21:04:29.143Z,12.10
2023-05-23T21:06:56.967Z,12.90
2023-05-23T21:09:24.685Z,11.90
2023-05-23T21:11:52.463Z,12.50
2023-05-23T21:14:20.027Z,13.00
2023-05-23T21:16:47.676Z,14.00
2023-05-23T21:19:15.359Z,14.10
2023-05-23T21:21:43.038Z,12.40
2023-05-23T21:24:10.760Z,12.70
2023-05-23T21:26:38.344Z,13.30
2023-05-23T21:29:06.075Z,12.30
2023-05-23T21:31:41.587Z,13.60
2023-05-23T21:34:22.227Z,12.30
2023-05-23T21:36:51.522Z,13.50
2023-05-23T21:39:19.786Z,12.70
2023-05-23T21:41:47.738Z,12.70
2023-05-23T21:44:17.762Z,12.70
2023-05-23T21:46:45.664Z,14.10
2023-05-23T21:49:14.331Z,12.50
2023-05-23T21:51:42.520Z,13.50
2023-05-23T21:54:10.141Z,11.80
2023-05-23T21:56:37.721Z,12.00
2023-05-23T21:59:05.304Z,10.80
2023-05-23T22:01:33.046Z,12.10
2023-05-23T22:04:01.391Z,10.50
2023-05-23T22:06:29.210Z,10.10
2023-05-23T22:08:56.836Z,10.40
2023-05-23T22:11:24.600Z,10.60
2023-05-23T22:13:52.219Z,9.10
2023-05-23T22:16:19.873Z,9.50
2023-05-23T22:18:51.861Z,9.70
2023-05-23T22:21:19.904Z,9.70
2023-05-23T22:23:47.617Z,9.40
2023-05-23T22:26:15.190Z,9.60
2023-05-23T22:28:42.928Z,9.30
2023-05-23T22:31:12.941Z,8.20
2023-05-23T22:33:41.832Z,8.60
2023-05-23T22:36:10.644Z,7.80
2023-05-23T22:38:38.798Z,7.90
2023-05-23T22:41:06.495Z,7.60
2023-05-23T22:43:34.085Z,7.30
2023-05-23T22:46:01.723Z,8.10
2023-05-23T22:48:33.978Z,7.80
2023-05-23T22:51:02.990Z,8.00
2023-05-23T22:53:30.646Z,7.60
2023-05-23T22:55:58.359Z,7.80
2023-05-23T22:58:26.184Z,7.30
2023-05-23T23:00:53.768Z,7.60
2023-05-23T23:03:21.568Z,8.30
2023-05-23T23:05:49.228Z,8.30
2023-05-23T23:08:16.891Z,9.00
2023-05-23T23:10:44.741Z,8.60
2023-05-23T23:13:14.337Z,7.50
2023-05-23T23:15:43.222Z,9.00
2023-05-23T23:18:13.784Z,8.20
2023-05-23T23:20:41.862Z,7.50
2023-05-23T23:23:09.721Z,7.80
2023-05-23T23:25:38.028Z,8.30
2023-05-23T23:28:06.396Z,7.40
2023-05-23T23:30:34.226Z,7.80
2023-05-23T23:33:02.066Z,7.70
2023-05-23T23:35:29.812Z,7.10
2023-05-23T23:37:57.402Z,7.60
2023-05-23T23:40:24.974Z,7.20
2023-05-23T23:42:52.534Z,6.90
2023-05-23T23:45:20.252Z,7.60
2023-05-23T23:47:47.895Z,6.90
2023-05-23T23:50:15.683Z,7.70
2023-05-23T23:52:43.584Z,7.00
2023-05-23T23:55:11.297Z,7.10
2023-05-23T23:57:38.940Z,7.00
